sensor_id;sensor_type;location;lat;lon;timestamp;temperature;humidity
31975;DHT22;18500;43.618;1.474;2022-10-16T00:01:11;16.80;1.00
31975;DHT22;18500;43.618;1.474;2022-10-16T00:03:39;16.70;1.00
31975;DHT22;18500;43.618;1.474;2022-10-16T00:06:05;16.70;1.00
31975;DHT22;18500;43.618;1.474;2022-10-16T00:08:31;16.60;1.00
31975;DHT22;18500;43.618;1.474;2022-10-16T00:11:02;16.60;1.00
31975;DHT22;18500;43.618;1.474;2022-10-16T00:13:29;16.60;1.00
31975;DHT22;18500;43.618;1.474;2022-10-16T00:15:56;16.50;1.00
31975;DHT22;18500;43.618;1.474;2022-10-16T00:18:23;16.50;1.00
31975;DHT22;18500;43.618;1.474;2022-10-16T00:20:49;16.50;1.00
31975;DHT22;18500;43.618;1.474;2022-10-16T00:23:14;16.50;1.00
31975;DHT22;18500;43.618;1.474;2022-10-16T00:25:40;16.60;1.00
31975;DHT22;18500;43.618;1.474;2022-10-16T00:28:06;16.50;1.00
31975;DHT22;18500;43.618;1.474;2022-10-16T00:30:31;16.50;1.00
31975;DHT22;18500;43.618;1.474;2022-10-16T00:32:57;16.60;1.00
31975;DHT22;18500;43.618;1.474;2022-10-16T00:35:23;16.70;1.00
31975;DHT22;18500;43.618;1.474;2022-10-16T00:37:48;16.70;1.00
31975;DHT22;18500;43.618;1.474;2022-10-16T00:40:14;16.60;1.00
31975;DHT22;18500;43.618;1.474;2022-10-16T00:42:40;16.60;1.00
31975;DHT22;18500;43.618;1.474;2022-10-16T00:45:06;16.60;1.00
31975;DHT22;18500;43.618;1.474;2022-10-16T00:47:36;16.60;1.00
31975;DHT22;18500;43.618;1.474;2022-10-16T00:50:37;16.60;1.00
31975;DHT22;18500;43.618;1.474;2022-10-16T00:53:03;16.70;1.00
31975;DHT22;18500;43.618;1.474;2022-10-16T00:55:28;16.70;1.00
31975;DHT22;18500;43.618;1.474;2022-10-16T00:57:56;16.70;1.00
31975;DHT22;18500;43.618;1.474;2022-10-16T01:00:24;16.70;1.00
31975;DHT22;18500;43.618;1.474;2022-10-16T01:02:54;16.80;1.00
31975;DHT22;18500;43.618;1.474;2022-10-16T01:05:22;16.70;1.00
31975;DHT22;18500;43.618;1.474;2022-10-16T01:10:52;16.80;1.00
31975;DHT22;18500;43.618;1.474;2022-10-16T01:13:37;16.80;1.00
31975;DHT22;18500;43.618;1.474;2022-10-16T01:16:16;16.80;1.00
31975;DHT22;18500;43.618;1.474;2022-10-16T01:21:43;16.70;1.00
31975;DHT22;18500;43.618;1.474;2022-10-16T01:27:10;16.70;1.00
31975;DHT22;18500;43.618;1.474;2022-10-16T01:32:40;16.60;1.00
31975;DHT22;18500;43.618;1.474;2022-10-16T01:35:46;16.70;1.00
31975;DHT22;18500;43.618;1.474;2022-10-16T01:40:47;16.70;1.00
31975;DHT22;18500;43.618;1.474;2022-10-16T01:43:36;16.70;1.00
31975;DHT22;18500;43.618;1.474;2022-10-16T01:46:04;16.80;1.00
31975;DHT22;18500;43.618;1.474;2022-10-16T01:48:31;16.90;1.00
31975;DHT22;18500;43.618;1.474;2022-10-16T01:51:08;17.00;1.00
31975;DHT22;18500;43.618;1.474;2022-10-16T01:53:34;17.10;1.00
31975;DHT22;18500;43.618;1.474;2022-10-16T01:56:02;17.10;1.00
31975;DHT22;18500;43.618;1.474;2022-10-16T01:58:30;17.10;1.00
31975;DHT22;18500;43.618;1.474;2022-10-16T02:01:00;17.10;1.00
31975;DHT22;18500;43.618;1.474;2022-10-16T02:03:26;17.10;1.00
31975;DHT22;18500;43.618;1.474;2022-10-16T02:05:56;17.10;1.00
31975;DHT22;18500;43.618;1.474;2022-10-16T02:08:25;17.10;1.00
31975;DHT22;18500;43.618;1.474;2022-10-16T02:10:55;17.20;1.00
31975;DHT22;18500;43.618;1.474;2022-10-16T02:13:29;17.20;1.00
31975;DHT22;18500;43.618;1.474;2022-10-16T02:15:56;17.20;1.00
31975;DHT22;18500;43.618;1.474;2022-10-16T02:18:21;17.10;1.00
31975;DHT22;18500;43.618;1.474;2022-10-16T02:23:43;17.00;1.00
31975;DHT22;18500;43.618;1.474;2022-10-16T02:26:15;17.00;1.00
31975;DHT22;18500;43.618;1.474;2022-10-16T02:28:48;17.00;1.00
31975;DHT22;18500;43.618;1.474;2022-10-16T02:31:22;17.00;1.00
31975;DHT22;18500;43.618;1.474;2022-10-16T02:33:52;17.00;1.00
31975;DHT22;18500;43.618;1.474;2022-10-16T02:36:20;17.00;1.00
31975;DHT22;18500;43.618;1.474;2022-10-16T02:38:46;17.10;1.00
31975;DHT22;18500;43.618;1.474;2022-10-16T02:41:13;17.10;1.00
31975;DHT22;18500;43.618;1.474;2022-10-16T02:43:39;17.10;1.00
31975;DHT22;18500;43.618;1.474;2022-10-16T02:46:04;17.10;1.00
31975;DHT22;18500;43.618;1.474;2022-10-16T02:48:30;17.10;1.00
31975;DHT22;18500;43.618;1.474;2022-10-16T02:50:56;17.10;1.00
31975;DHT22;18500;43.618;1.474;2022-10-16T02:53:22;17.00;1.00
31975;DHT22;18500;43.618;1.474;2022-10-16T02:55:48;17.10;1.00
31975;DHT22;18500;43.618;1.474;2022-10-16T02:58:13;17.10;1.00
31975;DHT22;18500;43.618;1.474;2022-10-16T03:00:39;17.00;1.00
31975;DHT22;18500;43.618;1.474;2022-10-16T03:03:05;17.10;1.00
31975;DHT22;18500;43.618;1.474;2022-10-16T03:05:30;17.10;1.00
31975;DHT22;18500;43.618;1.474;2022-10-16T03:07:57;17.10;1.00
31975;DHT22;18500;43.618;1.474;2022-10-16T03:10:25;17.00;1.00
31975;DHT22;18500;43.618;1.474;2022-10-16T03:12:51;17.10;1.00
31975;DHT22;18500;43.618;1.474;2022-10-16T03:15:16;17.00;1.00
31975;DHT22;18500;43.618;1.474;2022-10-16T03:17:42;17.00;1.00
31975;DHT22;18500;43.618;1.474;2022-10-16T03:20:08;16.90;1.00
31975;DHT22;18500;43.618;1.474;2022-10-16T03:22:34;16.90;1.00
31975;DHT22;18500;43.618;1.474;2022-10-16T03:25:00;16.90;1.00
31975;DHT22;18500;43.618;1.474;2022-10-16T03:27:26;17.00;1.00
31975;DHT22;18500;43.618;1.474;2022-10-16T03:29:51;17.00;1.00
31975;DHT22;18500;43.618;1.474;2022-10-16T03:32:17;17.00;1.00
31975;DHT22;18500;43.618;1.474;2022-10-16T03:34:43;17.00;1.00
31975;DHT22;18500;43.618;1.474;2022-10-16T03:37:09;17.00;1.00
31975;DHT22;18500;43.618;1.474;2022-10-16T03:39:35;17.00;1.00
31975;DHT22;18500;43.618;1.474;2022-10-16T03:42:00;17.00;1.00
31975;DHT22;18500;43.618;1.474;2022-10-16T03:44:26;17.00;1.00
31975;DHT22;18500;43.618;1.474;2022-10-16T03:46:52;17.00;1.00
31975;DHT22;18500;43.618;1.474;2022-10-16T03:49:17;17.00;1.00
31975;DHT22;18500;43.618;1.474;2022-10-16T03:51:43;17.00;1.00
31975;DHT22;18500;43.618;1.474;2022-10-16T03:54:10;17.00;1.00
31975;DHT22;18500;43.618;1.474;2022-10-16T03:56:35;17.10;1.00
31975;DHT22;18500;43.618;1.474;2022-10-16T03:59:01;17.10;1.00
31975;DHT22;18500;43.618;1.474;2022-10-16T04:01:26;17.20;1.00
31975;DHT22;18500;43.618;1.474;2022-10-16T04:03:52;17.20;1.00
31975;DHT22;18500;43.618;1.474;2022-10-16T04:06:18;17.20;1.00
31975;DHT22;18500;43.618;1.474;2022-10-16T04:08:44;17.20;1.00
31975;DHT22;18500;43.618;1.474;2022-10-16T04:11:09;17.30;1.00
31975;DHT22;18500;43.618;1.474;2022-10-16T04:13:35;17.30;1.00
31975;DHT22;18500;43.618;1.474;2022-10-16T04:16:01;17.30;1.00
31975;DHT22;18500;43.618;1.474;2022-10-16T04:18:27;17.30;1.00
31975;DHT22;18500;43.618;1.474;2022-10-16T04:20:53;17.30;1.00
31975;DHT22;18500;43.618;1.474;2022-10-16T04:23:19;17.40;1.00
31975;DHT22;18500;43.618;1.474;2022-10-16T04:25:45;17.40;1.00
31975;DHT22;18500;43.618;1.474;2022-10-16T04:28:10;17.40;1.00
31975;DHT22;18500;43.618;1.474;2022-10-16T04:30:38;17.30;1.00
31975;DHT22;18500;43.618;1.474;2022-10-16T04:33:04;17.40;1.00
31975;DHT22;18500;43.618;1.474;2022-10-16T04:35:30;17.40;1.00
31975;DHT22;18500;43.618;1.474;2022-10-16T04:37:57;17.40;1.00
31975;DHT22;18500;43.618;1.474;2022-10-16T04:40:23;17.50;1.00
31975;DHT22;18500;43.618;1.474;2022-10-16T04:42:49;17.50;1.00
31975;DHT22;18500;43.618;1.474;2022-10-16T04:45:15;17.60;1.00
31975;DHT22;18500;43.618;1.474;2022-10-16T04:47:41;17.60;1.00
31975;DHT22;18500;43.618;1.474;2022-10-16T04:50:07;17.60;1.00
31975;DHT22;18500;43.618;1.474;2022-10-16T04:52:32;17.60;1.00
31975;DHT22;18500;43.618;1.474;2022-10-16T04:54:59;17.60;1.00
31975;DHT22;18500;43.618;1.474;2022-10-16T04:57:28;17.60;1.00
31975;DHT22;18500;43.618;1.474;2022-10-16T04:59:54;17.60;1.00
31975;DHT22;18500;43.618;1.474;2022-10-16T05:02:20;17.60;1.00
31975;DHT22;18500;43.618;1.474;2022-10-16T05:04:45;17.70;1.00
31975;DHT22;18500;43.618;1.474;2022-10-16T05:07:11;17.70;1.00
31975;DHT22;18500;43.618;1.474;2022-10-16T05:09:37;17.70;1.00
31975;DHT22;18500;43.618;1.474;2022-10-16T05:12:03;17.70;1.00
31975;DHT22;18500;43.618;1.474;2022-10-16T05:14:29;17.70;1.00
31975;DHT22;18500;43.618;1.474;2022-10-16T05:16:55;17.80;1.00
31975;DHT22;18500;43.618;1.474;2022-10-16T05:19:21;17.80;1.00
31975;DHT22;18500;43.618;1.474;2022-10-16T05:21:46;17.80;1.00
31975;DHT22;18500;43.618;1.474;2022-10-16T05:24:12;17.80;1.00
31975;DHT22;18500;43.618;1.474;2022-10-16T05:26:38;17.80;1.00
31975;DHT22;18500;43.618;1.474;2022-10-16T05:29:03;17.90;1.00
31975;DHT22;18500;43.618;1.474;2022-10-16T05:31:29;17.80;1.00
31975;DHT22;18500;43.618;1.474;2022-10-16T05:33:59;17.80;1.00
31975;DHT22;18500;43.618;1.474;2022-10-16T05:36:25;17.80;1.00
31975;DHT22;18500;43.618;1.474;2022-10-16T05:38:51;17.80;1.00
31975;DHT22;18500;43.618;1.474;2022-10-16T05:41:16;17.80;1.00
31975;DHT22;18500;43.618;1.474;2022-10-16T05:43:47;17.80;1.00
31975;DHT22;18500;43.618;1.474;2022-10-16T05:46:13;17.80;1.00
31975;DHT22;18500;43.618;1.474;2022-10-16T05:48:38;17.80;1.00
31975;DHT22;18500;43.618;1.474;2022-10-16T05:51:06;17.70;1.00
31975;DHT22;18500;43.618;1.474;2022-10-16T05:53:34;17.70;1.00
31975;DHT22;18500;43.618;1.474;2022-10-16T05:56:00;17.70;1.00
31975;DHT22;18500;43.618;1.474;2022-10-16T05:58:30;17.70;1.00
31975;DHT22;18500;43.618;1.474;2022-10-16T06:01:01;17.60;1.00
31975;DHT22;18500;43.618;1.474;2022-10-16T06:03:28;17.70;1.00
31975;DHT22;18500;43.618;1.474;2022-10-16T06:05:53;17.50;1.00
31975;DHT22;18500;43.618;1.474;2022-10-16T06:08:21;17.50;1.00
31975;DHT22;18500;43.618;1.474;2022-10-16T06:10:46;17.50;1.00
31975;DHT22;18500;43.618;1.474;2022-10-16T06:13:13;17.50;1.00
31975;DHT22;18500;43.618;1.474;2022-10-16T06:15:41;17.70;1.00
31975;DHT22;18500;43.618;1.474;2022-10-16T06:18:08;17.80;1.00
31975;DHT22;18500;43.618;1.474;2022-10-16T06:20:35;17.80;1.00
31975;DHT22;18500;43.618;1.474;2022-10-16T06:23:00;17.90;1.00
31975;DHT22;18500;43.618;1.474;2022-10-16T06:25:26;17.90;1.00
31975;DHT22;18500;43.618;1.474;2022-10-16T06:27:52;18.00;1.00
31975;DHT22;18500;43.618;1.474;2022-10-16T06:30:17;18.00;1.00
31975;DHT22;18500;43.618;1.474;2022-10-16T06:32:43;18.10;1.00
31975;DHT22;18500;43.618;1.474;2022-10-16T06:35:08;18.10;1.00
31975;DHT22;18500;43.618;1.474;2022-10-16T06:37:34;18.10;1.00
31975;DHT22;18500;43.618;1.474;2022-10-16T06:40:00;18.20;1.00
31975;DHT22;18500;43.618;1.474;2022-10-16T06:42:26;18.20;1.00
31975;DHT22;18500;43.618;1.474;2022-10-16T06:44:51;18.20;1.00
31975;DHT22;18500;43.618;1.474;2022-10-16T06:47:17;18.30;1.00
31975;DHT22;18500;43.618;1.474;2022-10-16T06:49:43;18.20;1.00
31975;DHT22;18500;43.618;1.474;2022-10-16T06:52:08;18.30;1.00
31975;DHT22;18500;43.618;1.474;2022-10-16T06:54:34;18.30;1.00
31975;DHT22;18500;43.618;1.474;2022-10-16T06:57:00;18.40;1.00
31975;DHT22;18500;43.618;1.474;2022-10-16T06:59:27;18.50;1.00
31975;DHT22;18500;43.618;1.474;2022-10-16T07:01:52;18.60;1.00
31975;DHT22;18500;43.618;1.474;2022-10-16T07:04:18;18.60;1.00
31975;DHT22;18500;43.618;1.474;2022-10-16T07:06:44;18.60;1.00
31975;DHT22;18500;43.618;1.474;2022-10-16T07:09:10;18.60;1.00
31975;DHT22;18500;43.618;1.474;2022-10-16T07:11:38;18.50;1.00
31975;DHT22;18500;43.618;1.474;2022-10-16T07:14:04;18.50;1.00
31975;DHT22;18500;43.618;1.474;2022-10-16T07:16:32;18.50;1.00
31975;DHT22;18500;43.618;1.474;2022-10-16T07:18:59;18.50;1.00
31975;DHT22;18500;43.618;1.474;2022-10-16T07:21:33;18.60;1.00
31975;DHT22;18500;43.618;1.474;2022-10-16T07:24:03;18.70;1.00
31975;DHT22;18500;43.618;1.474;2022-10-16T07:26:31;18.80;1.00
31975;DHT22;18500;43.618;1.474;2022-10-16T07:28:57;18.90;1.00
31975;DHT22;18500;43.618;1.474;2022-10-16T07:31:23;18.90;1.00
31975;DHT22;18500;43.618;1.474;2022-10-16T07:33:50;19.00;1.00
31975;DHT22;18500;43.618;1.474;2022-10-16T07:36:17;19.00;1.00
31975;DHT22;18500;43.618;1.474;2022-10-16T07:38:43;19.00;1.00
31975;DHT22;18500;43.618;1.474;2022-10-16T07:41:18;19.10;1.00
31975;DHT22;18500;43.618;1.474;2022-10-16T07:43:49;19.30;1.00
31975;DHT22;18500;43.618;1.474;2022-10-16T07:46:15;19.30;1.00
31975;DHT22;18500;43.618;1.474;2022-10-16T07:48:42;19.40;1.00
31975;DHT22;18500;43.618;1.474;2022-10-16T07:51:12;19.60;1.00
31975;DHT22;18500;43.618;1.474;2022-10-16T07:53:38;19.60;1.00
31975;DHT22;18500;43.618;1.474;2022-10-16T07:56:05;19.70;1.00
31975;DHT22;18500;43.618;1.474;2022-10-16T07:58:32;19.70;1.00
31975;DHT22;18500;43.618;1.474;2022-10-16T08:01:02;19.80;1.00
31975;DHT22;18500;43.618;1.474;2022-10-16T08:03:28;19.90;1.00
31975;DHT22;18500;43.618;1.474;2022-10-16T08:05:53;19.90;1.00
31975;DHT22;18500;43.618;1.474;2022-10-16T08:08:19;19.90;1.00
31975;DHT22;18500;43.618;1.474;2022-10-16T08:10:45;19.90;1.00
31975;DHT22;18500;43.618;1.474;2022-10-16T08:13:11;19.90;1.00
31975;DHT22;18500;43.618;1.474;2022-10-16T08:15:38;19.90;1.00
31975;DHT22;18500;43.618;1.474;2022-10-16T08:18:05;19.80;1.00
31975;DHT22;18500;43.618;1.474;2022-10-16T08:20:31;19.80;1.00
31975;DHT22;18500;43.618;1.474;2022-10-16T08:22:58;19.90;1.00
31975;DHT22;18500;43.618;1.474;2022-10-16T08:25:25;19.90;1.00
31975;DHT22;18500;43.618;1.474;2022-10-16T08:27:51;20.00;1.00
31975;DHT22;18500;43.618;1.474;2022-10-16T08:30:19;20.00;1.00
31975;DHT22;18500;43.618;1.474;2022-10-16T08:32:44;20.10;1.00
31975;DHT22;18500;43.618;1.474;2022-10-16T08:35:11;20.20;1.00
31975;DHT22;18500;43.618;1.474;2022-10-16T08:37:38;20.20;1.00
31975;DHT22;18500;43.618;1.474;2022-10-16T08:40:06;20.20;1.00
31975;DHT22;18500;43.618;1.474;2022-10-16T08:48:49;20.30;1.00
31975;DHT22;18500;43.618;1.474;2022-10-16T08:56:14;20.40;1.00
31975;DHT22;18500;43.618;1.474;2022-10-16T08:58:40;20.40;1.00
31975;DHT22;18500;43.618;1.474;2022-10-16T09:01:13;20.50;1.00
31975;DHT22;18500;43.618;1.474;2022-10-16T09:04:12;20.60;1.00
31975;DHT22;18500;43.618;1.474;2022-10-16T09:06:52;20.50;1.00
31975;DHT22;18500;43.618;1.474;2022-10-16T09:12:24;20.70;1.00
31975;DHT22;18500;43.618;1.474;2022-10-16T09:18:07;21.00;1.00
31975;DHT22;18500;43.618;1.474;2022-10-16T09:20:50;21.10;1.00
31975;DHT22;18500;43.618;1.474;2022-10-16T09:23:25;21.10;1.00
31975;DHT22;18500;43.618;1.474;2022-10-16T09:25:51;21.20;1.00
31975;DHT22;18500;43.618;1.474;2022-10-16T09:28:18;21.30;1.00
31975;DHT22;18500;43.618;1.474;2022-10-16T09:30:44;21.40;1.00
31975;DHT22;18500;43.618;1.474;2022-10-16T09:33:11;21.40;1.00
31975;DHT22;18500;43.618;1.474;2022-10-16T09:35:46;21.50;1.00
31975;DHT22;18500;43.618;1.474;2022-10-16T09:38:30;21.60;1.00
31975;DHT22;18500;43.618;1.474;2022-10-16T09:40:58;21.70;1.00
31975;DHT22;18500;43.618;1.474;2022-10-16T09:43:34;21.80;1.00
31975;DHT22;18500;43.618;1.474;2022-10-16T09:46:05;21.80;1.00
31975;DHT22;18500;43.618;1.474;2022-10-16T09:48:36;22.00;1.00
31975;DHT22;18500;43.618;1.474;2022-10-16T09:51:04;22.00;1.00
31975;DHT22;18500;43.618;1.474;2022-10-16T09:53:42;22.00;1.00
31975;DHT22;18500;43.618;1.474;2022-10-16T09:56:21;22.20;1.00
31975;DHT22;18500;43.618;1.474;2022-10-16T09:58:51;22.30;1.00
31975;DHT22;18500;43.618;1.474;2022-10-16T10:01:18;22.30;1.00
31975;DHT22;18500;43.618;1.474;2022-10-16T10:03:44;22.30;1.00
31975;DHT22;18500;43.618;1.474;2022-10-16T10:06:18;22.40;1.00
31975;DHT22;18500;43.618;1.474;2022-10-16T10:09:25;22.50;1.00
31975;DHT22;18500;43.618;1.474;2022-10-16T10:11:52;22.60;1.00
31975;DHT22;18500;43.618;1.474;2022-10-16T10:16:52;22.90;1.00
31975;DHT22;18500;43.618;1.474;2022-10-16T10:19:23;22.90;1.00
31975;DHT22;18500;43.618;1.474;2022-10-16T10:21:50;22.80;1.00
31975;DHT22;18500;43.618;1.474;2022-10-16T10:24:18;22.90;1.00
31975;DHT22;18500;43.618;1.474;2022-10-16T10:27:02;23.10;1.00
31975;DHT22;18500;43.618;1.474;2022-10-16T10:29:47;23.20;1.00
31975;DHT22;18500;43.618;1.474;2022-10-16T10:32:35;23.20;1.00
31975;DHT22;18500;43.618;1.474;2022-10-16T10:35:18;23.20;1.00
31975;DHT22;18500;43.618;1.474;2022-10-16T10:40:41;23.40;1.00
31975;DHT22;18500;43.618;1.474;2022-10-16T10:45:47;23.50;1.00
31975;DHT22;18500;43.618;1.474;2022-10-16T10:48:17;23.50;1.00
31975;DHT22;18500;43.618;1.474;2022-10-16T10:51:13;23.60;1.00
31975;DHT22;18500;43.618;1.474;2022-10-16T10:54:02;23.50;1.00
31975;DHT22;18500;43.618;1.474;2022-10-16T11:02:13;23.80;1.00
31975;DHT22;18500;43.618;1.474;2022-10-16T11:07:27;23.90;1.00
31975;DHT22;18500;43.618;1.474;2022-10-16T11:10:18;24.00;1.00
31975;DHT22;18500;43.618;1.474;2022-10-16T11:12:50;24.10;1.00
31975;DHT22;18500;43.618;1.474;2022-10-16T11:15:36;24.20;1.00
31975;DHT22;18500;43.618;1.474;2022-10-16T11:18:06;24.10;1.00
31975;DHT22;18500;43.618;1.474;2022-10-16T11:20:47;24.20;1.00
31975;DHT22;18500;43.618;1.474;2022-10-16T11:23:28;24.10;1.00
31975;DHT22;18500;43.618;1.474;2022-10-16T11:25:59;24.10;1.00
31975;DHT22;18500;43.618;1.474;2022-10-16T11:28:32;24.20;1.00
31975;DHT22;18500;43.618;1.474;2022-10-16T11:34:02;24.30;1.00
31975;DHT22;18500;43.618;1.474;2022-10-16T11:39:22;24.20;1.00
31975;DHT22;18500;43.618;1.474;2022-10-16T11:49:41;24.70;1.00
31975;DHT22;18500;43.618;1.474;2022-10-16T11:52:23;24.70;1.00
31975;DHT22;18500;43.618;1.474;2022-10-16T11:55:02;24.70;1.00
31975;DHT22;18500;43.618;1.474;2022-10-16T11:58:00;24.50;1.00
31975;DHT22;18500;43.618;1.474;2022-10-16T12:00:52;24.60;1.00
31975;DHT22;18500;43.618;1.474;2022-10-16T12:03:30;24.70;1.00
31975;DHT22;18500;43.618;1.474;2022-10-16T12:08:44;25.00;1.00
31975;DHT22;18500;43.618;1.474;2022-10-16T12:16:30;26.50;1.00
31975;DHT22;18500;43.618;1.474;2022-10-16T12:19:12;28.70;1.00
31975;DHT22;18500;43.618;1.474;2022-10-16T12:21:39;27.00;1.00
31975;DHT22;18500;43.618;1.474;2022-10-16T12:24:05;29.20;1.00
31975;DHT22;18500;43.618;1.474;2022-10-16T12:26:38;30.30;1.00
31975;DHT22;18500;43.618;1.474;2022-10-16T12:29:33;31.40;1.00
31975;DHT22;18500;43.618;1.474;2022-10-16T12:31:59;32.80;1.00
31975;DHT22;18500;43.618;1.474;2022-10-16T12:37:31;33.30;1.00
31975;DHT22;18500;43.618;1.474;2022-10-16T12:39:58;32.80;1.00
31975;DHT22;18500;43.618;1.474;2022-10-16T12:44:54;33.60;1.00
31975;DHT22;18500;43.618;1.474;2022-10-16T12:47:50;33.40;1.00
31975;DHT22;18500;43.618;1.474;2022-10-16T12:52:59;32.10;1.00
31975;DHT22;18500;43.618;1.474;2022-10-16T12:55:26;31.00;1.00
31975;DHT22;18500;43.618;1.474;2022-10-16T13:08:39;27.20;1.00
31975;DHT22;18500;43.618;1.474;2022-10-16T13:11:23;26.80;1.00
31975;DHT22;18500;43.618;1.474;2022-10-16T13:24:32;25.80;1.00
31975;DHT22;18500;43.618;1.474;2022-10-16T13:27:27;25.60;1.00
31975;DHT22;18500;43.618;1.474;2022-10-16T13:30:15;25.90;1.00
31975;DHT22;18500;43.618;1.474;2022-10-16T13:32:46;25.90;1.00
31975;DHT22;18500;43.618;1.474;2022-10-16T13:35:33;25.80;1.00
31975;DHT22;18500;43.618;1.474;2022-10-16T13:38:08;25.80;1.00
31975;DHT22;18500;43.618;1.474;2022-10-16T13:40:36;26.00;1.00
31975;DHT22;18500;43.618;1.474;2022-10-16T13:43:02;26.00;1.00
31975;DHT22;18500;43.618;1.474;2022-10-16T13:45:28;25.90;1.00
31975;DHT22;18500;43.618;1.474;2022-10-16T13:48:04;25.60;1.00
31975;DHT22;18500;43.618;1.474;2022-10-16T13:50:30;25.60;1.00
31975;DHT22;18500;43.618;1.474;2022-10-16T13:53:07;25.50;1.00
31975;DHT22;18500;43.618;1.474;2022-10-16T13:55:33;25.50;1.00
31975;DHT22;18500;43.618;1.474;2022-10-16T13:58:12;25.40;1.00
31975;DHT22;18500;43.618;1.474;2022-10-16T14:00:38;25.40;1.00
31975;DHT22;18500;43.618;1.474;2022-10-16T14:03:12;25.40;1.00
31975;DHT22;18500;43.618;1.474;2022-10-16T14:05:50;25.30;1.00
31975;DHT22;18500;43.618;1.474;2022-10-16T14:08:16;25.60;1.00
31975;DHT22;18500;43.618;1.474;2022-10-16T14:10:42;25.60;1.00
31975;DHT22;18500;43.618;1.474;2022-10-16T14:13:14;25.60;1.00
31975;DHT22;18500;43.618;1.474;2022-10-16T14:15:49;25.40;1.00
31975;DHT22;18500;43.618;1.474;2022-10-16T14:18:19;25.50;1.00
31975;DHT22;18500;43.618;1.474;2022-10-16T14:20:46;25.40;1.00
31975;DHT22;18500;43.618;1.474;2022-10-16T14:23:30;25.30;1.00
31975;DHT22;18500;43.618;1.474;2022-10-16T14:28:39;25.10;1.00
31975;DHT22;18500;43.618;1.474;2022-10-16T14:31:25;24.90;1.00
31975;DHT22;18500;43.618;1.474;2022-10-16T14:33:51;24.90;1.00
31975;DHT22;18500;43.618;1.474;2022-10-16T14:36:17;24.80;1.00
31975;DHT22;18500;43.618;1.474;2022-10-16T14:41:22;24.60;1.00
31975;DHT22;18500;43.618;1.474;2022-10-16T14:43:52;24.60;1.00
31975;DHT22;18500;43.618;1.474;2022-10-16T14:46:20;24.50;1.00
31975;DHT22;18500;43.618;1.474;2022-10-16T14:48:49;24.40;1.00
31975;DHT22;18500;43.618;1.474;2022-10-16T14:51:18;24.40;1.00
31975;DHT22;18500;43.618;1.474;2022-10-16T14:53:45;24.20;1.00
31975;DHT22;18500;43.618;1.474;2022-10-16T14:56:23;24.10;1.00
31975;DHT22;18500;43.618;1.474;2022-10-16T14:58:50;24.20;1.00
31975;DHT22;18500;43.618;1.474;2022-10-16T15:01:16;24.10;1.00
31975;DHT22;18500;43.618;1.474;2022-10-16T15:03:43;24.10;1.00
31975;DHT22;18500;43.618;1.474;2022-10-16T15:06:13;24.20;1.00
31975;DHT22;18500;43.618;1.474;2022-10-16T15:08:39;24.30;1.00
31975;DHT22;18500;43.618;1.474;2022-10-16T15:11:09;24.30;1.00
31975;DHT22;18500;43.618;1.474;2022-10-16T15:13:35;24.30;1.00
31975;DHT22;18500;43.618;1.474;2022-10-16T15:16:01;24.30;1.00
31975;DHT22;18500;43.618;1.474;2022-10-16T15:18:26;24.30;1.00
31975;DHT22;18500;43.618;1.474;2022-10-16T15:20:52;24.40;1.00
31975;DHT22;18500;43.618;1.474;2022-10-16T15:23:20;24.50;1.00
31975;DHT22;18500;43.618;1.474;2022-10-16T15:25:51;24.40;1.00
31975;DHT22;18500;43.618;1.474;2022-10-16T15:28:18;24.30;1.00
31975;DHT22;18500;43.618;1.474;2022-10-16T15:30:44;24.20;1.00
31975;DHT22;18500;43.618;1.474;2022-10-16T15:33:13;24.30;1.00
31975;DHT22;18500;43.618;1.474;2022-10-16T15:35:40;24.40;1.00
31975;DHT22;18500;43.618;1.474;2022-10-16T15:38:05;25.70;1.00
31975;DHT22;18500;43.618;1.474;2022-10-16T15:40:31;26.60;1.00
31975;DHT22;18500;43.618;1.474;2022-10-16T15:42:57;25.90;1.00
31975;DHT22;18500;43.618;1.474;2022-10-16T15:45:22;25.70;1.00
31975;DHT22;18500;43.618;1.474;2022-10-16T15:47:48;25.40;1.00
31975;DHT22;18500;43.618;1.474;2022-10-16T15:50:15;25.10;1.00
31975;DHT22;18500;43.618;1.474;2022-10-16T15:52:41;24.80;1.00
31975;DHT22;18500;43.618;1.474;2022-10-16T15:55:12;24.60;1.00
31975;DHT22;18500;43.618;1.474;2022-10-16T15:57:38;24.40;1.00
31975;DHT22;18500;43.618;1.474;2022-10-16T16:00:11;24.20;1.00
31975;DHT22;18500;43.618;1.474;2022-10-16T16:02:38;24.20;1.00
31975;DHT22;18500;43.618;1.474;2022-10-16T16:05:03;24.10;1.00
31975;DHT22;18500;43.618;1.474;2022-10-16T16:07:33;23.90;1.00
31975;DHT22;18500;43.618;1.474;2022-10-16T16:09:59;23.80;1.00
31975;DHT22;18500;43.618;1.474;2022-10-16T16:12:25;23.70;1.00
31975;DHT22;18500;43.618;1.474;2022-10-16T16:14:51;23.70;1.00
31975;DHT22;18500;43.618;1.474;2022-10-16T16:17:17;23.60;1.00
31975;DHT22;18500;43.618;1.474;2022-10-16T16:19:42;23.50;1.00
31975;DHT22;18500;43.618;1.474;2022-10-16T16:22:08;23.40;1.00
31975;DHT22;18500;43.618;1.474;2022-10-16T16:24:33;23.30;1.00
31975;DHT22;18500;43.618;1.474;2022-10-16T16:26:59;23.20;1.00
31975;DHT22;18500;43.618;1.474;2022-10-16T16:29:25;23.10;1.00
31975;DHT22;18500;43.618;1.474;2022-10-16T16:31:50;23.00;1.00
31975;DHT22;18500;43.618;1.474;2022-10-16T16:34:25;23.00;1.00
31975;DHT22;18500;43.618;1.474;2022-10-16T16:36:51;22.90;1.00
31975;DHT22;18500;43.618;1.474;2022-10-16T16:39:17;22.80;1.00
31975;DHT22;18500;43.618;1.474;2022-10-16T16:41:43;22.70;1.00
31975;DHT22;18500;43.618;1.474;2022-10-16T16:44:12;22.60;1.00
31975;DHT22;18500;43.618;1.474;2022-10-16T16:46:38;22.60;1.00
31975;DHT22;18500;43.618;1.474;2022-10-16T16:49:05;22.40;1.00
31975;DHT22;18500;43.618;1.474;2022-10-16T16:51:32;22.40;1.00
31975;DHT22;18500;43.618;1.474;2022-10-16T16:53:58;22.20;1.00
31975;DHT22;18500;43.618;1.474;2022-10-16T16:56:25;22.20;1.00
31975;DHT22;18500;43.618;1.474;2022-10-16T16:58:53;22.10;1.00
31975;DHT22;18500;43.618;1.474;2022-10-16T17:01:21;22.10;1.00
31975;DHT22;18500;43.618;1.474;2022-10-16T17:03:48;22.00;1.00
31975;DHT22;18500;43.618;1.474;2022-10-16T17:06:15;22.00;1.00
31975;DHT22;18500;43.618;1.474;2022-10-16T17:08:41;21.90;1.00
31975;DHT22;18500;43.618;1.474;2022-10-16T17:11:12;21.90;1.00
31975;DHT22;18500;43.618;1.474;2022-10-16T17:13:38;21.80;1.00
31975;DHT22;18500;43.618;1.474;2022-10-16T17:16:05;21.80;1.00
31975;DHT22;18500;43.618;1.474;2022-10-16T17:18:32;21.70;1.00
31975;DHT22;18500;43.618;1.474;2022-10-16T17:21:02;21.70;1.00
31975;DHT22;18500;43.618;1.474;2022-10-16T17:23:28;21.60;1.00
31975;DHT22;18500;43.618;1.474;2022-10-16T17:25:54;21.60;1.00
31975;DHT22;18500;43.618;1.474;2022-10-16T17:28:20;21.50;1.00
31975;DHT22;18500;43.618;1.474;2022-10-16T17:30:46;21.40;1.00
31975;DHT22;18500;43.618;1.474;2022-10-16T17:33:12;21.40;1.00
31975;DHT22;18500;43.618;1.474;2022-10-16T17:35:45;21.30;1.00
31975;DHT22;18500;43.618;1.474;2022-10-16T17:38:12;21.30;1.00
31975;DHT22;18500;43.618;1.474;2022-10-16T17:40:39;21.30;1.00
31975;DHT22;18500;43.618;1.474;2022-10-16T17:43:05;21.20;1.00
31975;DHT22;18500;43.618;1.474;2022-10-16T17:45:36;21.10;1.00